Orto / Ocaso: 05:37 / 19:01 UTC (Datos para LEAX 20-08-2019)

[fuente: ADDS]

METAR:


LEMG 201230Z 13008KT 090V190 9999 FEW020 28/23 Q1015 NOSIG =
TAF LEMG 201100Z 2012/2112 14008KT 9999 SCT020 TX28/2013Z TN23/2100Z TEMPO 2023/2110 BKN012 PROB30 TEMPO 2023/2106 VRB03KT 4000 BR LEGR 201230Z VRB04KT 9999 FEW100 33/09 Q1017 =
TAF LEGR 200800Z 2009/2109 VRB02KT CAVOK TX36/2015Z TN15/2106Z BECMG 2012/2015 27010KT PROB40 TEMPO 2018/2021 18010KT BECMG 2020/2023 VRB02KT LEZL 201230Z 24004KT CAVOK 31/05 Q1015 NOSIG =
TAF LEZL 200800Z 2009/2109 VRB03KT CAVOK TX36/2015Z TN20/2106Z BECMG 2015/2018 23010KT BECMG 2020/2023 17005KT LEAM 201230Z 19008KT 150V280 9999 FEW025 29/23 Q1015 =
TAF LEAM 200800Z 2009/2109 10008KT 9999 FEW020 TX30/2011Z TN24/2106Z BECMG 2009/2011 20010KT BECMG 2017/2020 06014KT LEBA 201230Z 25004KT CAVOK 32/06 Q1015 =
TAF LEBA 201100Z 2012/2021 27007KT CAVOK LEJR 201230Z VRB05KT CAVOK 30/10 Q1016 =
TAF LEJR 201100Z 2012/2112 27010KT CAVOK TX35/2112Z TN18/2106Z BECMG 2019/2022 16006KT PROB30 TEMPO 2107/2110 07010KT GEML 201230Z 28011KT 230V330 CAVOK 32/04 Q1015 =
TAF GEML 200800Z 2009/2109 27010KT CAVOK TX32/2014Z TN24/2106Z BECMG 2017/2020 VRB02KT BECMG 2022/2024 08010KT BKN014 LXGB 201220Z 10002KT 9999 FEW020 28/16 Q1015 NOSIG RMK BLU BLU =
TAF LXGB 201047Z 2012/2021 19005KT 9999 FEW020 PROB30 TEMPO 2012/2017 19013KT 520002 BECMG 2017/2020 10008KT

TAFOR:


TAF LEMG 201100Z 2012/2112 14008KT 9999 SCT020 TX28/2013Z TN23/2100Z TEMPO 2023/2110 BKN012 PROB30 TEMPO 2023/2106 VRB03KT 4000 BR =
TAF LEGR 200800Z 2009/2109 VRB02KT CAVOK TX36/2015Z TN15/2106Z BECMG 2012/2015 27010KT PROB40 TEMPO 2018/2021 18010KT BECMG 2020/2023 VRB02KT =
TAF LEZL 200800Z 2009/2109 VRB03KT CAVOK TX36/2015Z TN20/2106Z BECMG 2015/2018 23010KT BECMG 2020/2023 17005KT =
TAF LEAM 200800Z 2009/2109 10008KT 9999 FEW020 TX30/2011Z TN24/2106Z BECMG 2009/2011 20010KT BECMG 2017/2020 06014KT =
TAF LEBA 201100Z 2012/2021 27007KT CAVOK =
TAF LEJR 201100Z 2012/2112 27010KT CAVOK TX35/2112Z TN18/2106Z BECMG 2019/2022 16006KT PROB30 TEMPO 2107/2110 07010KT =
TAF GEML 200800Z 2009/2109 27010KT CAVOK TX32/2014Z TN24/2106Z BECMG 2017/2020 VRB02KT BECMG 2022/2024 08010KT BKN014 =
TAF LXGB 201047Z 2012/2021 19005KT 9999 FEW020 PROB30 TEMPO 2012/2017 19013KT 520002 BECMG 2017/2020 10008KT =

Recuerde que, aunque regularmente actualizada, la información meteorológica aquí presentada no debe ser utilizada para la planificación de vuelos. Si lo desea, puede consultar la información meteorológica adecuada, tanto de aeródromos como en ruta, por las vías oficialmente establecidas en la legislación -> AQUí

Utilizamos "cookies" propias y de terceros para analizar nuestros servicios, medir las audiencias, personalizar el contenido que ofrecemos y mostrar información adaptada a sus intereses mediante la obtención de los datos necesarios para perfilar sus hábitos de navegación e inferir grupos de interés, siempre de modo anónimo. Si continúa utilizando el sitio web AEROCLUBMALAGA.COM, significa que acepta sus términos y condiciones y el uso de "cookies" al utilizar el sitio web y nuestros servicios. Asimismo, podemos utilizar fuentes de datos externas para elaborar estos grupos de interés, así compartir los análisis de navegación y los grupos de interés inferidos con terceros con el objetivo de personalizar los contenidos. Para obtener más información sobre las cookies que utilizamos y cómo eliminarlas, consulte nuestra política de privacidad.

Acepto las cookies de esta página web.
EU Cookie Directive plugin by www.channeldigital.co.uk